sensor_id;sensor_type;location;lat;lon;timestamp;P1;durP1;ratioP1;P2;durP2;ratioP2
1691;SDS011;843;52.054;8.552;2023-04-01T00:01:51;3.33;;;2.13;;
1691;SDS011;843;52.054;8.552;2023-04-01T00:04:19;2.77;;;2.13;;
1691;SDS011;843;52.054;8.552;2023-04-01T00:06:45;2.83;;;1.80;;
1691;SDS011;843;52.054;8.552;2023-04-01T00:09:13;3.57;;;2.10;;
1691;SDS011;843;52.054;8.552;2023-04-01T00:11:39;2.50;;;1.70;;
1691;SDS011;843;52.054;8.552;2023-04-01T00:14:06;2.40;;;1.67;;
1691;SDS011;843;52.054;8.552;2023-04-01T00:16:33;2.60;;;1.67;;
1691;SDS011;843;52.054;8.552;2023-04-01T00:19:00;2.20;;;1.37;;
1691;SDS011;843;52.054;8.552;2023-04-01T00:21:28;2.67;;;1.40;;
1691;SDS011;843;52.054;8.552;2023-04-01T00:23:54;2.57;;;1.23;;
1691;SDS011;843;52.054;8.552;2023-04-01T00:26:21;6.10;;;1.53;;
1691;SDS011;843;52.054;8.552;2023-04-01T00:28:48;2.50;;;1.30;;
1691;SDS011;843;52.054;8.552;2023-04-01T00:31:15;2.07;;;1.33;;
1691;SDS011;843;52.054;8.552;2023-04-01T00:33:41;1.33;;;1.10;;
1691;SDS011;843;52.054;8.552;2023-04-01T00:36:09;2.80;;;1.10;;
1691;SDS011;843;52.054;8.552;2023-04-01T00:38:37;3.77;;;1.00;;
1691;SDS011;843;52.054;8.552;2023-04-01T00:41:04;2.30;;;1.30;;
1691;SDS011;843;52.054;8.552;2023-04-01T00:43:31;2.40;;;1.27;;
1691;SDS011;843;52.054;8.552;2023-04-01T00:45:58;4.57;;;1.30;;
1691;SDS011;843;52.054;8.552;2023-04-01T00:48:26;2.37;;;0.83;;
1691;SDS011;843;52.054;8.552;2023-04-01T00:50:56;1.73;;;0.90;;
1691;SDS011;843;52.054;8.552;2023-04-01T00:53:25;5.33;;;1.30;;
1691;SDS011;843;52.054;8.552;2023-04-01T00:55:55;2.33;;;0.93;;
1691;SDS011;843;52.054;8.552;2023-04-01T00:58:24;2.93;;;1.17;;
1691;SDS011;843;52.054;8.552;2023-04-01T01:00:53;5.50;;;1.47;;
1691;SDS011;843;52.054;8.552;2023-04-01T01:03:21;3.00;;;1.33;;
1691;SDS011;843;52.054;8.552;2023-04-01T01:08:39;1.93;;;1.10;;
1691;SDS011;843;52.054;8.552;2023-04-01T01:11:16;1.63;;;1.07;;
1691;SDS011;843;52.054;8.552;2023-04-01T01:13:49;4.23;;;1.50;;
1691;SDS011;843;52.054;8.552;2023-04-01T01:16:20;1.77;;;1.10;;
1691;SDS011;843;52.054;8.552;2023-04-01T01:18:52;3.10;;;0.87;;
1691;SDS011;843;52.054;8.552;2023-04-01T01:21:42;1.37;;;0.97;;
1691;SDS011;843;52.054;8.552;2023-04-01T01:24:29;1.53;;;0.80;;
1691;SDS011;843;52.054;8.552;2023-04-01T01:27:04;1.50;;;1.10;;
1691;SDS011;843;52.054;8.552;2023-04-01T01:33:01;2.00;;;1.30;;
1691;SDS011;843;52.054;8.552;2023-04-01T01:35:35;2.10;;;1.23;;
1691;SDS011;843;52.054;8.552;2023-04-01T01:38:04;1.07;;;0.97;;
1691;SDS011;843;52.054;8.552;2023-04-01T01:40:32;2.40;;;0.80;;
1691;SDS011;843;52.054;8.552;2023-04-01T01:43:03;2.40;;;1.00;;
1691;SDS011;843;52.054;8.552;2023-04-01T01:45:32;2.50;;;0.70;;
1691;SDS011;843;52.054;8.552;2023-04-01T01:48:00;5.20;;;1.10;;
1691;SDS011;843;52.054;8.552;2023-04-01T01:50:28;1.20;;;0.57;;
1691;SDS011;843;52.054;8.552;2023-04-01T01:53:03;1.43;;;0.83;;
1691;SDS011;843;52.054;8.552;2023-04-01T01:55:32;1.37;;;0.67;;
1691;SDS011;843;52.054;8.552;2023-04-01T01:58:00;1.63;;;0.97;;
1691;SDS011;843;52.054;8.552;2023-04-01T02:00:30;1.80;;;0.83;;
1691;SDS011;843;52.054;8.552;2023-04-01T02:02:57;2.73;;;0.87;;
1691;SDS011;843;52.054;8.552;2023-04-01T02:05:25;4.40;;;0.70;;
1691;SDS011;843;52.054;8.552;2023-04-01T02:07:55;1.00;;;0.50;;
1691;SDS011;843;52.054;8.552;2023-04-01T02:10:28;3.03;;;0.93;;
1691;SDS011;843;52.054;8.552;2023-04-01T02:12:58;1.50;;;0.90;;
1691;SDS011;843;52.054;8.552;2023-04-01T02:15:28;1.63;;;0.90;;
1691;SDS011;843;52.054;8.552;2023-04-01T02:17:58;2.77;;;0.57;;
1691;SDS011;843;52.054;8.552;2023-04-01T02:20:25;2.80;;;0.70;;
1691;SDS011;843;52.054;8.552;2023-04-01T02:22:54;1.07;;;0.50;;
1691;SDS011;843;52.054;8.552;2023-04-01T02:25:22;1.90;;;0.60;;
1691;SDS011;843;52.054;8.552;2023-04-01T02:27:53;2.10;;;0.70;;
1691;SDS011;843;52.054;8.552;2023-04-01T02:30:21;0.70;;;0.60;;
1691;SDS011;843;52.054;8.552;2023-04-01T02:32:48;1.87;;;0.67;;
1691;SDS011;843;52.054;8.552;2023-04-01T02:35:15;0.97;;;0.57;;
1691;SDS011;843;52.054;8.552;2023-04-01T02:37:43;1.40;;;0.80;;
1691;SDS011;843;52.054;8.552;2023-04-01T02:40:12;2.17;;;1.07;;
1691;SDS011;843;52.054;8.552;2023-04-01T02:42:40;1.27;;;0.87;;
1691;SDS011;843;52.054;8.552;2023-04-01T02:45:09;2.33;;;0.80;;
1691;SDS011;843;52.054;8.552;2023-04-01T02:47:36;1.57;;;0.60;;
1691;SDS011;843;52.054;8.552;2023-04-01T02:50:03;2.43;;;0.80;;
1691;SDS011;843;52.054;8.552;2023-04-01T02:52:31;1.13;;;0.60;;
1691;SDS011;843;52.054;8.552;2023-04-01T02:55:00;2.10;;;0.73;;
1691;SDS011;843;52.054;8.552;2023-04-01T02:57:26;1.47;;;0.60;;
1691;SDS011;843;52.054;8.552;2023-04-01T02:59:54;3.70;;;0.90;;
1691;SDS011;843;52.054;8.552;2023-04-01T03:02:22;2.00;;;0.60;;
1691;SDS011;843;52.054;8.552;2023-04-01T03:04:48;4.00;;;0.73;;
1691;SDS011;843;52.054;8.552;2023-04-01T03:07:15;3.80;;;0.80;;
1691;SDS011;843;52.054;8.552;2023-04-01T03:09:41;0.70;;;0.50;;
1691;SDS011;843;52.054;8.552;2023-04-01T03:12:08;1.50;;;1.00;;
1691;SDS011;843;52.054;8.552;2023-04-01T03:14:35;1.00;;;0.67;;
1691;SDS011;843;52.054;8.552;2023-04-01T03:17:01;0.60;;;0.50;;
1691;SDS011;843;52.054;8.552;2023-04-01T03:19:29;3.50;;;0.60;;
1691;SDS011;843;52.054;8.552;2023-04-01T03:21:56;3.00;;;0.60;;
1691;SDS011;843;52.054;8.552;2023-04-01T03:24:23;1.67;;;0.63;;
1691;SDS011;843;52.054;8.552;2023-04-01T03:26:49;0.60;;;0.43;;
1691;SDS011;843;52.054;8.552;2023-04-01T03:29:16;0.80;;;0.70;;
1691;SDS011;843;52.054;8.552;2023-04-01T03:31:42;1.13;;;0.60;;
1691;SDS011;843;52.054;8.552;2023-04-01T03:34:09;1.07;;;0.53;;
1691;SDS011;843;52.054;8.552;2023-04-01T03:36:37;1.83;;;0.83;;
1691;SDS011;843;52.054;8.552;2023-04-01T03:39:04;1.23;;;0.50;;
1691;SDS011;843;52.054;8.552;2023-04-01T03:41:32;0.80;;;0.60;;
1691;SDS011;843;52.054;8.552;2023-04-01T03:43:59;0.97;;;0.40;;
1691;SDS011;843;52.054;8.552;2023-04-01T03:46:32;0.93;;;0.60;;
1691;SDS011;843;52.054;8.552;2023-04-01T03:48:59;1.00;;;0.60;;
1691;SDS011;843;52.054;8.552;2023-04-01T03:51:26;2.30;;;0.50;;
1691;SDS011;843;52.054;8.552;2023-04-01T03:53:54;1.47;;;0.60;;
1691;SDS011;843;52.054;8.552;2023-04-01T03:56:20;2.20;;;0.57;;
1691;SDS011;843;52.054;8.552;2023-04-01T03:58:47;3.33;;;0.70;;
1691;SDS011;843;52.054;8.552;2023-04-01T04:01:15;1.23;;;0.87;;
1691;SDS011;843;52.054;8.552;2023-04-01T04:03:42;1.07;;;0.50;;
1691;SDS011;843;52.054;8.552;2023-04-01T04:06:12;1.80;;;0.50;;
1691;SDS011;843;52.054;8.552;2023-04-01T04:08:39;2.30;;;0.70;;
1691;SDS011;843;52.054;8.552;2023-04-01T04:11:07;2.60;;;0.70;;
1691;SDS011;843;52.054;8.552;2023-04-01T04:13:34;1.07;;;0.50;;
1691;SDS011;843;52.054;8.552;2023-04-01T04:16:01;1.90;;;0.90;;
1691;SDS011;843;52.054;8.552;2023-04-01T04:18:28;2.03;;;0.50;;
1691;SDS011;843;52.054;8.552;2023-04-01T04:20:54;1.57;;;0.57;;
1691;SDS011;843;52.054;8.552;2023-04-01T04:23:21;1.47;;;0.70;;
1691;SDS011;843;52.054;8.552;2023-04-01T04:25:54;2.30;;;0.67;;
1691;SDS011;843;52.054;8.552;2023-04-01T04:28:23;0.90;;;0.57;;
1691;SDS011;843;52.054;8.552;2023-04-01T04:30:50;2.70;;;0.70;;
1691;SDS011;843;52.054;8.552;2023-04-01T04:33:17;1.13;;;0.50;;
1691;SDS011;843;52.054;8.552;2023-04-01T04:35:43;1.70;;;0.40;;
1691;SDS011;843;52.054;8.552;2023-04-01T04:38:10;1.03;;;0.70;;
1691;SDS011;843;52.054;8.552;2023-04-01T04:40:37;0.63;;;0.50;;
1691;SDS011;843;52.054;8.552;2023-04-01T04:43:04;0.80;;;0.57;;
1691;SDS011;843;52.054;8.552;2023-04-01T04:45:32;0.93;;;0.70;;
1691;SDS011;843;52.054;8.552;2023-04-01T04:47:59;0.90;;;0.40;;
1691;SDS011;843;52.054;8.552;2023-04-01T04:50:26;1.37;;;0.53;;
1691;SDS011;843;52.054;8.552;2023-04-01T04:52:52;2.00;;;1.03;;
1691;SDS011;843;52.054;8.552;2023-04-01T04:55:19;0.50;;;0.50;;
1691;SDS011;843;52.054;8.552;2023-04-01T04:57:46;1.47;;;0.40;;
1691;SDS011;843;52.054;8.552;2023-04-01T05:00:13;1.10;;;0.67;;
1691;SDS011;843;52.054;8.552;2023-04-01T05:02:41;2.27;;;0.67;;
1691;SDS011;843;52.054;8.552;2023-04-01T05:05:08;0.80;;;0.70;;
1691;SDS011;843;52.054;8.552;2023-04-01T05:07:35;1.30;;;0.90;;
1691;SDS011;843;52.054;8.552;2023-04-01T05:10:02;0.90;;;0.60;;
1691;SDS011;843;52.054;8.552;2023-04-01T05:12:29;3.00;;;0.90;;
1691;SDS011;843;52.054;8.552;2023-04-01T05:14:57;2.23;;;0.70;;
1691;SDS011;843;52.054;8.552;2023-04-01T05:17:24;0.97;;;0.80;;
1691;SDS011;843;52.054;8.552;2023-04-01T05:19:52;1.10;;;0.80;;
1691;SDS011;843;52.054;8.552;2023-04-01T05:22:18;1.00;;;0.60;;
1691;SDS011;843;52.054;8.552;2023-04-01T05:24:45;1.47;;;1.00;;
1691;SDS011;843;52.054;8.552;2023-04-01T05:27:12;2.73;;;1.30;;
1691;SDS011;843;52.054;8.552;2023-04-01T05:29:38;1.63;;;1.00;;
1691;SDS011;843;52.054;8.552;2023-04-01T05:32:05;1.20;;;0.80;;
1691;SDS011;843;52.054;8.552;2023-04-01T05:34:32;1.20;;;1.10;;
1691;SDS011;843;52.054;8.552;2023-04-01T05:37:00;1.00;;;0.80;;
1691;SDS011;843;52.054;8.552;2023-04-01T05:39:27;1.50;;;0.93;;
1691;SDS011;843;52.054;8.552;2023-04-01T05:41:54;0.67;;;0.67;;
1691;SDS011;843;52.054;8.552;2023-04-01T05:44:20;1.03;;;0.90;;
1691;SDS011;843;52.054;8.552;2023-04-01T05:46:47;1.60;;;0.80;;
1691;SDS011;843;52.054;8.552;2023-04-01T05:49:13;1.63;;;0.90;;
1691;SDS011;843;52.054;8.552;2023-04-01T05:51:40;0.90;;;0.90;;
1691;SDS011;843;52.054;8.552;2023-04-01T05:54:08;0.70;;;0.70;;
1691;SDS011;843;52.054;8.552;2023-04-01T05:56:35;5.50;;;0.70;;
1691;SDS011;843;52.054;8.552;2023-04-01T05:59:02;1.17;;;0.63;;
1691;SDS011;843;52.054;8.552;2023-04-01T06:01:28;2.00;;;1.07;;
1691;SDS011;843;52.054;8.552;2023-04-01T06:03:55;0.90;;;0.60;;
1691;SDS011;843;52.054;8.552;2023-04-01T06:06:23;1.33;;;0.70;;
1691;SDS011;843;52.054;8.552;2023-04-01T06:08:51;0.70;;;0.70;;
1691;SDS011;843;52.054;8.552;2023-04-01T06:11:22;1.50;;;0.70;;
1691;SDS011;843;52.054;8.552;2023-04-01T06:13:59;0.60;;;0.60;;
1691;SDS011;843;52.054;8.552;2023-04-01T06:16:35;0.90;;;0.53;;
1691;SDS011;843;52.054;8.552;2023-04-01T06:19:12;0.50;;;0.50;;
1691;SDS011;843;52.054;8.552;2023-04-01T06:21:54;1.60;;;0.73;;
1691;SDS011;843;52.054;8.552;2023-04-01T06:24:31;1.63;;;0.60;;
1691;SDS011;843;52.054;8.552;2023-04-01T06:27:07;0.60;;;0.40;;
1691;SDS011;843;52.054;8.552;2023-04-01T06:29:44;0.80;;;0.77;;
1691;SDS011;843;52.054;8.552;2023-04-01T06:32:22;1.80;;;0.60;;
1691;SDS011;843;52.054;8.552;2023-04-01T06:35:03;1.57;;;0.90;;
1691;SDS011;843;52.054;8.552;2023-04-01T06:37:47;1.10;;;1.10;;
1691;SDS011;843;52.054;8.552;2023-04-01T06:40:21;0.60;;;0.60;;
1691;SDS011;843;52.054;8.552;2023-04-01T06:43:01;0.87;;;0.70;;
1691;SDS011;843;52.054;8.552;2023-04-01T06:45:36;0.57;;;0.57;;
1691;SDS011;843;52.054;8.552;2023-04-01T06:48:14;0.60;;;0.60;;
1691;SDS011;843;52.054;8.552;2023-04-01T06:51:02;3.57;;;2.00;;
1691;SDS011;843;52.054;8.552;2023-04-01T06:53:35;3.33;;;1.60;;
1691;SDS011;843;52.054;8.552;2023-04-01T06:56:07;1.50;;;1.00;;
1691;SDS011;843;52.054;8.552;2023-04-01T06:58:37;2.10;;;1.37;;
1691;SDS011;843;52.054;8.552;2023-04-01T07:01:06;1.73;;;1.30;;
1691;SDS011;843;52.054;8.552;2023-04-01T07:03:35;1.97;;;1.27;;
1691;SDS011;843;52.054;8.552;2023-04-01T07:06:06;2.60;;;1.43;;
1691;SDS011;843;52.054;8.552;2023-04-01T07:08:36;2.93;;;1.73;;
1691;SDS011;843;52.054;8.552;2023-04-01T07:11:06;4.40;;;1.70;;
1691;SDS011;843;52.054;8.552;2023-04-01T07:13:39;1.00;;;0.90;;
1691;SDS011;843;52.054;8.552;2023-04-01T07:16:11;1.73;;;1.27;;
1691;SDS011;843;52.054;8.552;2023-04-01T07:18:41;3.13;;;1.23;;
1691;SDS011;843;52.054;8.552;2023-04-01T07:21:20;2.43;;;1.37;;
1691;SDS011;843;52.054;8.552;2023-04-01T07:23:50;1.87;;;1.23;;
1691;SDS011;843;52.054;8.552;2023-04-01T07:26:19;1.63;;;1.53;;
1691;SDS011;843;52.054;8.552;2023-04-01T07:28:48;1.50;;;1.40;;
1691;SDS011;843;52.054;8.552;2023-04-01T07:31:19;2.30;;;1.60;;
1691;SDS011;843;52.054;8.552;2023-04-01T07:33:55;2.70;;;2.23;;
1691;SDS011;843;52.054;8.552;2023-04-01T07:36:26;2.00;;;1.90;;
1691;SDS011;843;52.054;8.552;2023-04-01T07:38:58;2.97;;;2.07;;
1691;SDS011;843;52.054;8.552;2023-04-01T07:41:32;2.13;;;1.97;;
1691;SDS011;843;52.054;8.552;2023-04-01T07:44:07;1.90;;;1.63;;
1691;SDS011;843;52.054;8.552;2023-04-01T07:46:43;1.70;;;1.57;;
1691;SDS011;843;52.054;8.552;2023-04-01T07:49:17;2.03;;;1.83;;
1691;SDS011;843;52.054;8.552;2023-04-01T07:51:49;1.97;;;1.77;;
1691;SDS011;843;52.054;8.552;2023-04-01T07:54:25;1.70;;;1.60;;
1691;SDS011;843;52.054;8.552;2023-04-01T07:56:56;1.73;;;1.63;;
1691;SDS011;843;52.054;8.552;2023-04-01T07:59:28;1.77;;;1.60;;
1691;SDS011;843;52.054;8.552;2023-04-01T08:01:59;1.70;;;1.60;;
1691;SDS011;843;52.054;8.552;2023-04-01T08:04:35;1.97;;;1.77;;
1691;SDS011;843;52.054;8.552;2023-04-01T08:07:09;2.30;;;1.67;;
1691;SDS011;843;52.054;8.552;2023-04-01T08:09:40;1.90;;;1.60;;
1691;SDS011;843;52.054;8.552;2023-04-01T08:12:13;2.20;;;2.00;;
1691;SDS011;843;52.054;8.552;2023-04-01T08:14:52;1.67;;;1.57;;
1691;SDS011;843;52.054;8.552;2023-04-01T08:17:27;1.77;;;1.67;;
1691;SDS011;843;52.054;8.552;2023-04-01T08:20:00;6.83;;;2.60;;
1691;SDS011;843;52.054;8.552;2023-04-01T08:22:35;2.20;;;2.00;;
1691;SDS011;843;52.054;8.552;2023-04-01T08:25:05;4.27;;;2.00;;
1691;SDS011;843;52.054;8.552;2023-04-01T08:27:34;2.33;;;1.90;;
1691;SDS011;843;52.054;8.552;2023-04-01T08:30:05;2.07;;;1.90;;
1691;SDS011;843;52.054;8.552;2023-04-01T08:32:42;1.87;;;1.73;;
1691;SDS011;843;52.054;8.552;2023-04-01T08:35:14;2.03;;;1.83;;
1691;SDS011;843;52.054;8.552;2023-04-01T08:37:43;4.30;;;2.40;;
1691;SDS011;843;52.054;8.552;2023-04-01T08:40:18;2.20;;;1.67;;
1691;SDS011;843;52.054;8.552;2023-04-01T08:42:57;2.10;;;1.57;;
1691;SDS011;843;52.054;8.552;2023-04-01T08:45:47;1.60;;;1.50;;
1691;SDS011;843;52.054;8.552;2023-04-01T08:48:41;2.53;;;1.87;;
1691;SDS011;843;52.054;8.552;2023-04-01T08:57:15;1.83;;;1.73;;
1691;SDS011;843;52.054;8.552;2023-04-01T08:59:53;1.30;;;1.20;;
1691;SDS011;843;52.054;8.552;2023-04-01T09:05:38;1.90;;;1.80;;
1691;SDS011;843;52.054;8.552;2023-04-01T09:08:29;2.17;;;1.60;;
1691;SDS011;843;52.054;8.552;2023-04-01T09:14:04;2.13;;;0.90;;
1691;SDS011;843;52.054;8.552;2023-04-01T09:16:42;1.60;;;1.30;;
1691;SDS011;843;52.054;8.552;2023-04-01T09:19:20;1.30;;;1.20;;
1691;SDS011;843;52.054;8.552;2023-04-01T09:24:59;1.40;;;1.30;;
1691;SDS011;843;52.054;8.552;2023-04-01T09:27:33;2.17;;;1.50;;
1691;SDS011;843;52.054;8.552;2023-04-01T09:33:31;3.93;;;1.23;;
1691;SDS011;843;52.054;8.552;2023-04-01T09:36:15;2.90;;;1.67;;
1691;SDS011;843;52.054;8.552;2023-04-01T09:38:52;1.77;;;1.40;;
1691;SDS011;843;52.054;8.552;2023-04-01T09:41:26;1.60;;;1.50;;
1691;SDS011;843;52.054;8.552;2023-04-01T09:44:00;1.53;;;1.43;;
1691;SDS011;843;52.054;8.552;2023-04-01T09:46:32;2.80;;;1.87;;
1691;SDS011;843;52.054;8.552;2023-04-01T09:49:17;1.40;;;1.30;;
1691;SDS011;843;52.054;8.552;2023-04-01T09:51:53;1.67;;;1.27;;
1691;SDS011;843;52.054;8.552;2023-04-01T09:54:35;1.43;;;1.33;;
1691;SDS011;843;52.054;8.552;2023-04-01T10:00:15;1.40;;;1.30;;
1691;SDS011;843;52.054;8.552;2023-04-01T10:03:12;1.20;;;1.07;;
1691;SDS011;843;52.054;8.552;2023-04-01T10:06:21;1.40;;;1.30;;
1691;SDS011;843;52.054;8.552;2023-04-01T10:15:33;1.80;;;1.37;;
1691;SDS011;843;52.054;8.552;2023-04-01T10:18:25;1.60;;;1.50;;
1691;SDS011;843;52.054;8.552;2023-04-01T10:21:07;2.37;;;1.60;;
1691;SDS011;843;52.054;8.552;2023-04-01T10:29:42;1.83;;;1.73;;
1691;SDS011;843;52.054;8.552;2023-04-01T10:33:02;1.67;;;1.57;;
1691;SDS011;843;52.054;8.552;2023-04-01T10:38:47;1.43;;;1.27;;
1691;SDS011;843;52.054;8.552;2023-04-01T10:45:04;1.23;;;1.13;;
1691;SDS011;843;52.054;8.552;2023-04-01T10:47:48;2.70;;;1.50;;
1691;SDS011;843;52.054;8.552;2023-04-01T10:53:42;1.37;;;1.27;;
1691;SDS011;843;52.054;8.552;2023-04-01T10:56:34;1.47;;;1.37;;
1691;SDS011;843;52.054;8.552;2023-04-01T11:01:59;1.50;;;1.23;;
1691;SDS011;843;52.054;8.552;2023-04-01T11:11:09;1.43;;;1.33;;
1691;SDS011;843;52.054;8.552;2023-04-01T11:14:13;3.03;;;1.47;;
1691;SDS011;843;52.054;8.552;2023-04-01T11:22:53;1.83;;;1.73;;
1691;SDS011;843;52.054;8.552;2023-04-01T11:25:41;2.23;;;1.67;;
1691;SDS011;843;52.054;8.552;2023-04-01T11:28:24;2.10;;;1.90;;
1691;SDS011;843;52.054;8.552;2023-04-01T11:31:21;4.70;;;1.50;;
1691;SDS011;843;52.054;8.552;2023-04-01T11:34:05;1.63;;;1.53;;
1691;SDS011;843;52.054;8.552;2023-04-01T11:36:41;2.90;;;1.80;;
1691;SDS011;843;52.054;8.552;2023-04-01T11:39:17;2.10;;;2.00;;
1691;SDS011;843;52.054;8.552;2023-04-01T11:41:50;1.93;;;1.83;;
1691;SDS011;843;52.054;8.552;2023-04-01T11:44:20;2.07;;;1.93;;
1691;SDS011;843;52.054;8.552;2023-04-01T11:49:42;2.33;;;2.13;;
1691;SDS011;843;52.054;8.552;2023-04-01T11:52:16;3.53;;;2.13;;
1691;SDS011;843;52.054;8.552;2023-04-01T11:54:52;2.60;;;1.97;;
1691;SDS011;843;52.054;8.552;2023-04-01T11:57:44;2.50;;;2.30;;
1691;SDS011;843;52.054;8.552;2023-04-01T12:00:25;2.70;;;1.77;;
1691;SDS011;843;52.054;8.552;2023-04-01T12:03:21;2.70;;;2.20;;
1691;SDS011;843;52.054;8.552;2023-04-01T12:05:58;2.60;;;2.40;;
1691;SDS011;843;52.054;8.552;2023-04-01T12:08:31;2.30;;;2.10;;
1691;SDS011;843;52.054;8.552;2023-04-01T12:11:05;2.20;;;2.00;;
1691;SDS011;843;52.054;8.552;2023-04-01T12:13:37;2.33;;;2.23;;
1691;SDS011;843;52.054;8.552;2023-04-01T12:16:22;2.30;;;2.00;;
1691;SDS011;843;52.054;8.552;2023-04-01T12:18:59;1.50;;;1.40;;
1691;SDS011;843;52.054;8.552;2023-04-01T12:21:32;2.80;;;2.20;;
1691;SDS011;843;52.054;8.552;2023-04-01T12:24:18;1.97;;;1.87;;
1691;SDS011;843;52.054;8.552;2023-04-01T12:29:43;2.30;;;2.00;;
1691;SDS011;843;52.054;8.552;2023-04-01T12:32:19;2.03;;;1.60;;
1691;SDS011;843;52.054;8.552;2023-04-01T12:34:58;1.73;;;1.63;;
1691;SDS011;843;52.054;8.552;2023-04-01T12:37:46;2.13;;;1.93;;
1691;SDS011;843;52.054;8.552;2023-04-01T12:40:22;2.30;;;2.10;;
1691;SDS011;843;52.054;8.552;2023-04-01T12:42:57;2.30;;;2.10;;
1691;SDS011;843;52.054;8.552;2023-04-01T12:45:31;2.00;;;1.80;;
1691;SDS011;843;52.054;8.552;2023-04-01T12:50:53;1.90;;;1.80;;
1691;SDS011;843;52.054;8.552;2023-04-01T12:54:08;2.50;;;2.23;;
1691;SDS011;843;52.054;8.552;2023-04-01T12:56:49;1.70;;;1.57;;
1691;SDS011;843;52.054;8.552;2023-04-01T12:59:25;1.60;;;1.50;;
1691;SDS011;843;52.054;8.552;2023-04-01T13:02:00;1.33;;;1.23;;
1691;SDS011;843;52.054;8.552;2023-04-01T13:07:34;1.63;;;1.53;;
1691;SDS011;843;52.054;8.552;2023-04-01T13:10:26;1.70;;;1.60;;
1691;SDS011;843;52.054;8.552;2023-04-01T13:13:00;2.40;;;2.20;;
1691;SDS011;843;52.054;8.552;2023-04-01T13:15:45;2.27;;;1.87;;
1691;SDS011;843;52.054;8.552;2023-04-01T13:18:17;1.83;;;1.73;;
1691;SDS011;843;52.054;8.552;2023-04-01T13:20:53;1.90;;;1.80;;
1691;SDS011;843;52.054;8.552;2023-04-01T13:23:30;1.90;;;1.80;;
1691;SDS011;843;52.054;8.552;2023-04-01T13:26:03;1.83;;;1.63;;
1691;SDS011;843;52.054;8.552;2023-04-01T13:28:37;1.47;;;1.37;;
1691;SDS011;843;52.054;8.552;2023-04-01T13:31:12;1.63;;;1.53;;
1691;SDS011;843;52.054;8.552;2023-04-01T13:33:47;1.47;;;1.37;;
1691;SDS011;843;52.054;8.552;2023-04-01T13:36:19;2.90;;;1.40;;
1691;SDS011;843;52.054;8.552;2023-04-01T13:39:04;0.90;;;0.83;;
1691;SDS011;843;52.054;8.552;2023-04-01T13:41:56;2.10;;;1.27;;
1691;SDS011;843;52.054;8.552;2023-04-01T13:44:40;1.30;;;0.83;;
1691;SDS011;843;52.054;8.552;2023-04-01T13:47:17;1.27;;;1.10;;
1691;SDS011;843;52.054;8.552;2023-04-01T13:50:01;1.00;;;0.90;;
1691;SDS011;843;52.054;8.552;2023-04-01T13:55:45;1.97;;;1.30;;
1691;SDS011;843;52.054;8.552;2023-04-01T13:58:43;1.47;;;1.20;;
1691;SDS011;843;52.054;8.552;2023-04-01T14:01:17;1.30;;;1.20;;
1691;SDS011;843;52.054;8.552;2023-04-01T14:03:53;1.50;;;1.40;;
1691;SDS011;843;52.054;8.552;2023-04-01T14:06:39;1.40;;;1.30;;
1691;SDS011;843;52.054;8.552;2023-04-01T14:09:38;1.33;;;1.23;;
1691;SDS011;843;52.054;8.552;2023-04-01T14:12:31;1.80;;;1.63;;
1691;SDS011;843;52.054;8.552;2023-04-01T14:15:07;2.30;;;1.10;;
1691;SDS011;843;52.054;8.552;2023-04-01T14:17:50;1.33;;;1.23;;
1691;SDS011;843;52.054;8.552;2023-04-01T14:20:27;1.40;;;1.17;;
1691;SDS011;843;52.054;8.552;2023-04-01T14:23:13;1.30;;;1.20;;
1691;SDS011;843;52.054;8.552;2023-04-01T14:25:52;2.30;;;2.10;;
1691;SDS011;843;52.054;8.552;2023-04-01T14:28:26;2.93;;;2.63;;
1691;SDS011;843;52.054;8.552;2023-04-01T14:31:04;2.07;;;1.87;;
1691;SDS011;843;52.054;8.552;2023-04-01T14:33:58;1.97;;;1.87;;
1691;SDS011;843;52.054;8.552;2023-04-01T14:36:34;1.83;;;1.73;;
1691;SDS011;843;52.054;8.552;2023-04-01T14:39:12;2.10;;;2.00;;
1691;SDS011;843;52.054;8.552;2023-04-01T14:41:47;1.97;;;1.87;;
1691;SDS011;843;52.054;8.552;2023-04-01T14:44:26;2.60;;;2.40;;
1691;SDS011;843;52.054;8.552;2023-04-01T14:49:48;2.60;;;2.40;;
1691;SDS011;843;52.054;8.552;2023-04-01T14:52:21;2.90;;;2.70;;
1691;SDS011;843;52.054;8.552;2023-04-01T14:54:52;2.20;;;2.10;;
1691;SDS011;843;52.054;8.552;2023-04-01T14:57:22;1.80;;;1.70;;
1691;SDS011;843;52.054;8.552;2023-04-01T14:59:53;2.17;;;2.07;;
1691;SDS011;843;52.054;8.552;2023-04-01T15:02:27;2.60;;;2.40;;
1691;SDS011;843;52.054;8.552;2023-04-01T15:05:02;2.70;;;2.50;;
1691;SDS011;843;52.054;8.552;2023-04-01T15:07:57;1.97;;;1.87;;
1691;SDS011;843;52.054;8.552;2023-04-01T15:10:32;2.10;;;1.90;;
1691;SDS011;843;52.054;8.552;2023-04-01T15:13:12;1.70;;;1.60;;
1691;SDS011;843;52.054;8.552;2023-04-01T15:15:47;2.17;;;2.00;;
1691;SDS011;843;52.054;8.552;2023-04-01T15:18:23;2.13;;;2.03;;
1691;SDS011;843;52.054;8.552;2023-04-01T15:21:12;2.37;;;2.17;;
1691;SDS011;843;52.054;8.552;2023-04-01T15:23:52;3.57;;;3.27;;
1691;SDS011;843;52.054;8.552;2023-04-01T15:26:32;3.30;;;3.10;;
1691;SDS011;843;52.054;8.552;2023-04-01T15:29:11;3.57;;;3.27;;
1691;SDS011;843;52.054;8.552;2023-04-01T15:31:50;6.23;;;5.63;;
1691;SDS011;843;52.054;8.552;2023-04-01T15:34:25;4.10;;;3.80;;
1691;SDS011;843;52.054;8.552;2023-04-01T15:36:57;4.03;;;3.70;;
1691;SDS011;843;52.054;8.552;2023-04-01T15:39:29;3.73;;;3.43;;
1691;SDS011;843;52.054;8.552;2023-04-01T15:42:26;5.87;;;4.30;;
1691;SDS011;843;52.054;8.552;2023-04-01T15:45:03;4.07;;;3.70;;
1691;SDS011;843;52.054;8.552;2023-04-01T15:47:39;5.20;;;4.70;;
1691;SDS011;843;52.054;8.552;2023-04-01T15:50:24;5.23;;;4.70;;
1691;SDS011;843;52.054;8.552;2023-04-01T15:52:58;4.13;;;3.83;;
1691;SDS011;843;52.054;8.552;2023-04-01T15:55:34;3.70;;;3.40;;
1691;SDS011;843;52.054;8.552;2023-04-01T15:58:06;3.50;;;3.20;;
1691;SDS011;843;52.054;8.552;2023-04-01T16:00:56;2.90;;;2.20;;
1691;SDS011;843;52.054;8.552;2023-04-01T16:03:30;3.00;;;2.60;;
1691;SDS011;843;52.054;8.552;2023-04-01T16:09:11;4.30;;;3.90;;
1691;SDS011;843;52.054;8.552;2023-04-01T16:11:47;3.43;;;3.13;;
1691;SDS011;843;52.054;8.552;2023-04-01T16:14:24;4.97;;;4.50;;
1691;SDS011;843;52.054;8.552;2023-04-01T16:16:59;7.30;;;5.67;;
1691;SDS011;843;52.054;8.552;2023-04-01T16:19:41;5.47;;;4.37;;
1691;SDS011;843;52.054;8.552;2023-04-01T16:22:17;3.50;;;2.60;;
1691;SDS011;843;52.054;8.552;2023-04-01T16:24:48;3.37;;;3.07;;
1691;SDS011;843;52.054;8.552;2023-04-01T16:27:20;3.60;;;2.83;;
1691;SDS011;843;52.054;8.552;2023-04-01T16:29:52;3.93;;;3.20;;
1691;SDS011;843;52.054;8.552;2023-04-01T16:32:34;4.33;;;3.63;;
1691;SDS011;843;52.054;8.552;2023-04-01T16:37:56;2.83;;;2.50;;
1691;SDS011;843;52.054;8.552;2023-04-01T16:40:33;5.93;;;3.60;;
1691;SDS011;843;52.054;8.552;2023-04-01T16:43:06;3.90;;;2.90;;
1691;SDS011;843;52.054;8.552;2023-04-01T16:45:38;5.70;;;4.60;;
1691;SDS011;843;52.054;8.552;2023-04-01T16:48:10;6.00;;;3.57;;
1691;SDS011;843;52.054;8.552;2023-04-01T16:50:51;7.60;;;5.63;;
1691;SDS011;843;52.054;8.552;2023-04-01T16:53:22;4.50;;;3.80;;
1691;SDS011;843;52.054;8.552;2023-04-01T16:55:57;5.20;;;4.07;;
1691;SDS011;843;52.054;8.552;2023-04-01T16:58:33;5.23;;;3.27;;
1691;SDS011;843;52.054;8.552;2023-04-01T17:01:02;5.83;;;4.20;;
1691;SDS011;843;52.054;8.552;2023-04-01T17:03:32;7.10;;;5.67;;
1691;SDS011;843;52.054;8.552;2023-04-01T17:06:06;6.37;;;4.97;;
1691;SDS011;843;52.054;8.552;2023-04-01T17:08:43;11.37;;;7.37;;
1691;SDS011;843;52.054;8.552;2023-04-01T17:11:17;7.50;;;5.60;;
1691;SDS011;843;52.054;8.552;2023-04-01T17:13:46;7.53;;;5.10;;
1691;SDS011;843;52.054;8.552;2023-04-01T17:19:34;5.50;;;3.77;;
1691;SDS011;843;52.054;8.552;2023-04-01T17:22:12;6.07;;;4.53;;
1691;SDS011;843;52.054;8.552;2023-04-01T17:24:53;7.50;;;4.87;;
1691;SDS011;843;52.054;8.552;2023-04-01T17:27:32;5.70;;;5.00;;
1691;SDS011;843;52.054;8.552;2023-04-01T17:30:18;5.80;;;4.10;;
1691;SDS011;843;52.054;8.552;2023-04-01T17:33:04;6.13;;;4.30;;
1691;SDS011;843;52.054;8.552;2023-04-01T17:35:52;5.67;;;4.63;;
1691;SDS011;843;52.054;8.552;2023-04-01T17:42:04;4.40;;;4.00;;
1691;SDS011;843;52.054;8.552;2023-04-01T17:44:38;5.87;;;5.30;;
1691;SDS011;843;52.054;8.552;2023-04-01T17:50:13;4.80;;;4.40;;
1691;SDS011;843;52.054;8.552;2023-04-01T17:52:54;5.00;;;4.60;;